Time;durP1;ratioP1;P1;durP2;ratioP2;P2;SDS_P1;SDS_P2;PMS_P1;PMS_P2;Temp;Humidity;BMP_temperature;BMP_pressure;BME280_temperature;BME280_humidity;BME280_pressure;Samples;Min_cycle;Max_cycle;Signal;HPM_P1;HPM_P2
2022/01/03 00:01:44;;;;;;;3.93;1.20;;;;;;;;;;5093460;28;20432;-73
2022/01/03 00:04:10;;;;;;;3.67;1.80;;;;;;;;;;5093410;28;20530;-71
2022/01/03 00:06:38;;;;;;;3.03;1.80;;;;;;;;;;5093303;28;20407;-72
2022/01/03 00:09:04;;;;;;;2.00;1.40;;;;;;;;;;5091841;28;20489;-71
2022/01/03 00:11:30;;;;;;;4.03;1.60;;;;;;;;;;5091959;28;20502;-72
2022/01/03 00:13:56;;;;;;;3.77;1.30;;;;;;;;;;5093294;28;20403;-72
2022/01/03 00:16:24;;;;;;;2.30;1.47;;;;;;;;;;5093347;28;20410;-73
2022/01/03 00:18:54;;;;;;;6.70;1.80;;;;;;;;;;5093175;28;21026;-73
2022/01/03 00:21:21;;;;;;;3.20;1.43;;;;;;;;;;5093194;28;20404;-72
2022/01/03 00:24:02;;;;;;;3.07;1.47;;;;;;;;;;5093062;28;20457;-70
2022/01/03 00:26:30;;;;;;;1.50;1.37;;;;;;;;;;5093187;28;20396;-71
2022/01/03 00:29:01;;;;;;;3.93;1.67;;;;;;;;;;5093032;28;20416;-72
2022/01/03 00:31:33;;;;;;;4.47;1.77;;;;;;;;;;5093025;28;20495;-71
2022/01/03 00:33:59;;;;;;;5.27;1.87;;;;;;;;;;5091676;28;20443;-71
2022/01/03 00:36:28;;;;;;;4.43;2.07;;;;;;;;;;5091810;28;20426;-72
2022/01/03 00:38:55;;;;;;;4.40;1.57;;;;;;;;;;5091626;28;20475;-72
2022/01/03 00:41:22;;;;;;;2.73;1.20;;;;;;;;;;5092986;28;20411;-72
2022/01/03 00:43:48;;;;;;;6.03;2.17;;;;;;;;;;5091620;28;20396;-72
2022/01/03 00:46:17;;;;;;;2.70;1.40;;;;;;;;;;5092992;28;20407;-72
2022/01/03 00:48:43;;;;;;;2.97;1.33;;;;;;;;;;5092887;28;20479;-71
2022/01/03 00:51:10;;;;;;;2.90;1.63;;;;;;;;;;5092862;28;20408;-71
2022/01/03 00:53:36;;;;;;;3.30;1.50;;;;;;;;;;5092881;28;20886;-71
2022/01/03 00:56:09;;;;;;;2.93;1.53;;;;;;;;;;5092806;28;20396;-72
2022/01/03 00:58:44;;;;;;;2.77;1.70;;;;;;;;;;5092605;28;20573;-72
2022/01/03 01:01:11;;;;;;;2.70;1.47;;;;;;;;;;5095478;28;20407;-71
2022/01/03 01:03:38;;;;;;;1.40;1.30;;;;;;;;;;5095308;28;20431;-71
2022/01/03 01:06:05;;;;;;;3.53;1.70;;;;;;;;;;5095353;28;20978;-72
2022/01/03 01:08:32;;;;;;;3.30;1.70;;;;;;;;;;5095337;28;20506;-71
2022/01/03 01:10:59;;;;;;;2.90;1.40;;;;;;;;;;5095114;28;20408;-72
2022/01/03 01:13:25;;;;;;;3.00;1.67;;;;;;;;;;5096330;28;20419;-72
2022/01/03 01:15:51;;;;;;;5.70;1.53;;;;;;;;;;5095155;28;20403;-72
2022/01/03 01:18:17;;;;;;;2.53;1.60;;;;;;;;;;5096326;28;20459;-72
2022/01/03 01:20:43;;;;;;;2.47;1.27;;;;;;;;;;5095128;28;20494;-71
2022/01/03 01:23:10;;;;;;;3.00;1.20;;;;;;;;;;5096232;28;20925;-72
2022/01/03 01:28:03;;;;;;;1.67;1.43;;;;;;;;;;5096120;28;20411;-72
2022/01/03 01:30:30;;;;;;;5.10;1.83;;;;;;;;;;5096079;28;20404;-72
2022/01/03 01:33:01;;;;;;;3.27;1.77;;;;;;;;;;5095914;28;20441;-72
2022/01/03 01:35:30;;;;;;;3.63;1.40;;;;;;;;;;5096272;28;20461;-72
2022/01/03 01:37:57;;;;;;;3.40;1.73;;;;;;;;;;5095882;28;20470;-72
2022/01/03 01:40:23;;;;;;;3.93;1.37;;;;;;;;;;5095922;28;20407;-71
2022/01/03 01:42:49;;;;;;;3.03;1.10;;;;;;;;;;5095733;28;20408;-71
2022/01/03 01:45:19;;;;;;;4.57;1.83;;;;;;;;;;5095789;28;20396;-72
2022/01/03 01:47:47;;;;;;;2.70;1.40;;;;;;;;;;5095851;28;20439;-73
2022/01/03 01:50:13;;;;;;;3.33;1.50;;;;;;;;;;5095732;28;20399;-72
2022/01/03 01:52:39;;;;;;;5.40;1.67;;;;;;;;;;5095636;28;20484;-73
2022/01/03 01:55:07;;;;;;;2.70;1.47;;;;;;;;;;5095646;28;20434;-72
2022/01/03 01:57:58;;;;;;;5.23;1.70;;;;;;;;;;5095571;28;20464;-72
2022/01/03 02:00:25;;;;;;;3.43;1.63;;;;;;;;;;5094226;28;20543;-74
2022/01/03 02:02:57;;;;;;;8.80;1.70;;;;;;;;;;5095401;28;20423;-72
2022/01/03 02:05:40;;;;;;;5.10;1.70;;;;;;;;;;5094233;28;20482;-72
2022/01/03 02:08:16;;;;;;;5.83;1.90;;;;;;;;;;5095500;28;20460;-72
2022/01/03 02:10:44;;;;;;;5.37;1.77;;;;;;;;;;5095318;28;20411;-72
2022/01/03 02:13:11;;;;;;;3.93;1.60;;;;;;;;;;5094715;28;20457;-72
2022/01/03 02:15:38;;;;;;;5.73;1.60;;;;;;;;;;5095200;28;20443;-73
2022/01/03 02:18:04;;;;;;;1.47;1.30;;;;;;;;;;5095144;28;20550;-73
2022/01/03 02:20:32;;;;;;;1.47;1.20;;;;;;;;;;5095214;28;20409;-72
2022/01/03 02:22:58;;;;;;;1.57;1.17;;;;;;;;;;5095042;28;20412;-72
2022/01/03 02:25:25;;;;;;;3.87;2.17;;;;;;;;;;5095033;28;20404;-72
2022/01/03 02:27:52;;;;;;;2.10;1.70;;;;;;;;;;5094916;28;20446;-73
2022/01/03 02:30:19;;;;;;;3.27;1.77;;;;;;;;;;5094762;28;20408;-73
2022/01/03 02:32:45;;;;;;;2.90;1.33;;;;;;;;;;5094792;28;20447;-72
2022/01/03 02:35:12;;;;;;;4.27;1.67;;;;;;;;;;5093734;28;20415;-72
2022/01/03 02:37:38;;;;;;;3.07;1.80;;;;;;;;;;5093455;28;20462;-72
2022/01/03 02:40:05;;;;;;;4.30;1.60;;;;;;;;;;5094867;28;20457;-72
2022/01/03 02:42:31;;;;;;;4.53;1.60;;;;;;;;;;5094787;28;20395;-73
2022/01/03 02:45:09;;;;;;;6.00;1.70;;;;;;;;;;5094707;28;20970;-72
2022/01/03 02:47:35;;;;;;;3.40;1.60;;;;;;;;;;5094577;28;20910;-73
2022/01/03 02:50:01;;;;;;;4.20;1.47;;;;;;;;;;5093282;28;20925;-72
2022/01/03 02:52:27;;;;;;;2.70;1.50;;;;;;;;;;5094524;28;20921;-72
2022/01/03 02:54:53;;;;;;;4.30;1.73;;;;;;;;;;5094484;28;20399;-73
2022/01/03 02:57:23;;;;;;;3.00;1.63;;;;;;;;;;5094347;28;20447;-70
2022/01/03 02:59:53;;;;;;;2.50;2.00;;;;;;;;;;5094258;28;20468;-70
2022/01/03 03:02:20;;;;;;;2.40;1.50;;;;;;;;;;5094279;28;20519;-70
2022/01/03 03:05:00;;;;;;;3.90;1.43;;;;;;;;;;5092988;28;20914;-71
2022/01/03 03:07:27;;;;;;;2.60;1.33;;;;;;;;;;5092978;28;20502;-70
2022/01/03 03:09:54;;;;;;;3.13;1.70;;;;;;;;;;5092882;28;20502;-70
2022/01/03 03:12:20;;;;;;;3.33;1.73;;;;;;;;;;5094111;28;20412;-71
2022/01/03 03:14:46;;;;;;;3.30;2.20;;;;;;;;;;5094199;28;20486;-72
2022/01/03 03:17:13;;;;;;;2.00;1.70;;;;;;;;;;5093985;28;20411;-72
2022/01/03 03:19:52;;;;;;;5.53;1.53;;;;;;;;;;5092754;28;20469;-72
2022/01/03 03:22:18;;;;;;;2.00;1.60;;;;;;;;;;5094145;28;20411;-72
2022/01/03 03:24:44;;;;;;;4.10;1.53;;;;;;;;;;5092986;28;20521;-72
2022/01/03 03:27:11;;;;;;;3.90;1.23;;;;;;;;;;5093491;28;20425;-72
2022/01/03 03:29:48;;;;;;;3.37;1.50;;;;;;;;;;5093890;28;20433;-72
2022/01/03 03:32:14;;;;;;;4.80;1.50;;;;;;;;;;5093810;28;20488;-72
2022/01/03 03:34:40;;;;;;;4.47;1.93;;;;;;;;;;5093706;28;20499;-72
2022/01/03 03:37:06;;;;;;;3.63;1.53;;;;;;;;;;5093623;28;20482;-72
2022/01/03 03:39:34;;;;;;;4.13;1.70;;;;;;;;;;5093755;28;20423;-72
2022/01/03 03:42:00;;;;;;;2.43;1.33;;;;;;;;;;5093710;28;20396;-72
2022/01/03 03:44:27;;;;;;;5.73;1.80;;;;;;;;;;5092356;28;20412;-71
2022/01/03 03:46:53;;;;;;;3.57;1.60;;;;;;;;;;5093426;28;20403;-72
2022/01/03 03:49:19;;;;;;;2.50;1.20;;;;;;;;;;5092257;28;20411;-74
2022/01/03 03:51:45;;;;;;;3.33;1.50;;;;;;;;;;5093455;28;20490;-73
2022/01/03 03:54:11;;;;;;;3.43;1.50;;;;;;;;;;5093565;28;20448;-73
2022/01/03 03:56:37;;;;;;;3.13;1.10;;;;;;;;;;5092305;28;20807;-72
2022/01/03 03:59:03;;;;;;;4.70;1.20;;;;;;;;;;5093186;28;20486;-73
2022/01/03 04:01:28;;;;;;;2.77;1.50;;;;;;;;;;5093283;28;20415;-73
2022/01/03 04:03:54;;;;;;;2.57;1.30;;;;;;;;;;5092046;28;20392;-72
2022/01/03 04:06:20;;;;;;;2.73;1.40;;;;;;;;;;5093335;28;20420;-73
2022/01/03 04:08:46;;;;;;;3.13;1.30;;;;;;;;;;5091953;28;20809;-72
2022/01/03 04:11:13;;;;;;;3.17;1.20;;;;;;;;;;5092037;28;20757;-73
2022/01/03 04:13:40;;;;;;;3.80;1.27;;;;;;;;;;5093256;28;20395;-73
2022/01/03 04:16:06;;;;;;;3.67;1.53;;;;;;;;;;5093365;28;20941;-74
2022/01/03 04:18:32;;;;;;;3.93;1.23;;;;;;;;;;5093110;28;20462;-73
2022/01/03 04:20:58;;;;;;;3.90;1.20;;;;;;;;;;5093271;28;20414;-74
2022/01/03 04:23:24;;;;;;;5.07;1.37;;;;;;;;;;5093169;28;20457;-73
2022/01/03 04:25:53;;;;;;;5.30;1.63;;;;;;;;;;5093196;28;20411;-72
2022/01/03 04:28:20;;;;;;;3.03;1.23;;;;;;;;;;5093066;28;20820;-73
2022/01/03 04:30:46;;;;;;;4.20;1.40;;;;;;;;;;5093195;28;20388;-73
2022/01/03 04:33:12;;;;;;;3.40;1.83;;;;;;;;;;5092913;28;20420;-73
2022/01/03 04:35:39;;;;;;;2.37;1.40;;;;;;;;;;5094867;28;20400;-73
2022/01/03 04:38:05;;;;;;;7.13;1.50;;;;;;;;;;5095841;28;20464;-72
2022/01/03 04:40:32;;;;;;;3.23;1.57;;;;;;;;;;5095891;28;20847;-73
2022/01/03 04:42:58;;;;;;;2.70;1.07;;;;;;;;;;5095708;28;20443;-73
2022/01/03 04:45:24;;;;;;;2.10;1.40;;;;;;;;;;5095940;28;20404;-74
2022/01/03 04:47:50;;;;;;;3.33;1.10;;;;;;;;;;5096941;28;20404;-73
2022/01/03 04:50:16;;;;;;;3.43;1.47;;;;;;;;;;5097002;28;20465;-74
2022/01/03 04:52:42;;;;;;;3.47;1.37;;;;;;;;;;5095580;28;20419;-74
2022/01/03 04:55:08;;;;;;;3.37;1.37;;;;;;;;;;5096880;28;20503;-73
2022/01/03 04:57:34;;;;;;;4.27;1.37;;;;;;;;;;5096809;28;20545;-73
2022/01/03 05:00:01;;;;;;;4.87;1.77;;;;;;;;;;5096654;28;21029;-72
2022/01/03 05:02:27;;;;;;;5.03;1.40;;;;;;;;;;5096556;28;20416;-74
2022/01/03 05:04:53;;;;;;;2.50;1.40;;;;;;;;;;5096686;28;20857;-72
2022/01/03 05:07:18;;;;;;;1.20;1.10;;;;;;;;;;5096546;28;20456;-73
2022/01/03 05:09:45;;;;;;;4.40;1.70;;;;;;;;;;5095323;28;20479;-73
2022/01/03 05:12:11;;;;;;;4.17;1.60;;;;;;;;;;5096461;28;20442;-72
2022/01/03 05:14:37;;;;;;;5.03;1.47;;;;;;;;;;5095224;28;20828;-73
2022/01/03 05:17:03;;;;;;;5.17;1.30;;;;;;;;;;5096319;28;20424;-72
2022/01/03 05:19:29;;;;;;;3.80;1.53;;;;;;;;;;5095110;28;20411;-74
2022/01/03 05:21:55;;;;;;;1.57;1.27;;;;;;;;;;5095042;28;20484;-72
2022/01/03 05:24:21;;;;;;;4.03;1.70;;;;;;;;;;5096243;28;20418;-72
2022/01/03 05:26:47;;;;;;;5.37;1.77;;;;;;;;;;5096112;28;20440;-72
2022/01/03 05:29:13;;;;;;;8.53;1.97;;;;;;;;;;5094875;28;20443;-72
2022/01/03 05:31:39;;;;;;;4.27;1.80;;;;;;;;;;5096047;28;20419;-72
2022/01/03 05:34:05;;;;;;;4.73;1.67;;;;;;;;;;5096028;28;20476;-72
2022/01/03 05:36:31;;;;;;;4.47;2.43;;;;;;;;;;5094840;28;20427;-73
2022/01/03 05:38:57;;;;;;;1.50;1.40;;;;;;;;;;5094604;28;20919;-72
2022/01/03 05:41:23;;;;;;;2.07;1.50;;;;;;;;;;5095235;28;20749;-73
2022/01/03 05:43:49;;;;;;;3.47;1.73;;;;;;;;;;5095728;28;20751;-77
2022/01/03 05:46:15;;;;;;;4.63;1.67;;;;;;;;;;5094234;28;20404;-73
2022/01/03 05:48:41;;;;;;;2.60;1.20;;;;;;;;;;5095250;28;20392;-73
2022/01/03 05:51:08;;;;;;;4.77;1.70;;;;;;;;;;5094638;28;20411;-73
2022/01/03 05:53:34;;;;;;;3.23;1.43;;;;;;;;;;5095684;28;20498;-72
2022/01/03 05:56:00;;;;;;;2.57;1.77;;;;;;;;;;5095602;28;20475;-74
2022/01/03 05:58:27;;;;;;;4.10;1.70;;;;;;;;;;5095313;28;20479;-73
2022/01/03 06:00:53;;;;;;;7.10;1.80;;;;;;;;;;5094406;28;20415;-74
2022/01/03 06:03:22;;;;;;;3.93;1.70;;;;;;;;;;5095454;28;20424;-73
2022/01/03 06:08:24;;;;;;;4.43;1.93;;;;;;;;;;5095405;28;20402;-72
2022/01/03 06:10:50;;;;;;;3.30;2.00;;;;;;;;;;5095400;28;20404;-75
2022/01/03 06:13:16;;;;;;;5.40;2.07;;;;;;;;;;5093952;28;20411;-71
2022/01/03 06:15:43;;;;;;;1.93;1.50;;;;;;;;;;5095232;28;20395;-73
2022/01/03 06:18:10;;;;;;;7.47;1.80;;;;;;;;;;5095255;28;20499;-73
2022/01/03 06:20:38;;;;;;;5.73;2.30;;;;;;;;;;5095224;28;20418;-72
2022/01/03 06:23:04;;;;;;;5.80;2.10;;;;;;;;;;5093744;28;20449;-72
2022/01/03 06:25:30;;;;;;;5.43;2.03;;;;;;;;;;5094975;28;20396;-71
2022/01/03 06:27:56;;;;;;;3.27;1.90;;;;;;;;;;5094970;28;20402;-72
2022/01/03 06:30:22;;;;;;;3.60;1.87;;;;;;;;;;5094886;28;20895;-73
2022/01/03 06:32:48;;;;;;;5.53;2.80;;;;;;;;;;5094736;28;21109;-72
2022/01/03 06:35:14;;;;;;;4.40;2.50;;;;;;;;;;5095218;28;20404;-72
2022/01/03 06:37:40;;;;;;;4.93;1.97;;;;;;;;;;5093871;28;20459;-72
2022/01/03 06:40:06;;;;;;;4.70;2.27;;;;;;;;;;5094696;28;20431;-74
2022/01/03 06:42:33;;;;;;;9.13;2.30;;;;;;;;;;5094607;28;20392;-71
2022/01/03 06:44:59;;;;;;;5.23;1.90;;;;;;;;;;5094649;28;20407;-73
2022/01/03 06:47:25;;;;;;;4.63;2.23;;;;;;;;;;5094544;28;20766;-71
2022/01/03 06:49:51;;;;;;;8.20;2.13;;;;;;;;;;5094417;28;20789;-73
2022/01/03 06:52:18;;;;;;;6.50;2.20;;;;;;;;;;5094546;28;20909;-71
2022/01/03 06:54:44;;;;;;;5.33;2.20;;;;;;;;;;5093292;28;20502;-72
2022/01/03 06:57:10;;;;;;;2.53;2.00;;;;;;;;;;5094475;28;20439;-71
2022/01/03 06:59:36;;;;;;;4.70;2.10;;;;;;;;;;5094182;28;20491;-72
2022/01/03 07:02:02;;;;;;;5.80;2.30;;;;;;;;;;5092977;28;20423;-72
2022/01/03 07:04:28;;;;;;;6.80;2.67;;;;;;;;;;5094376;28;20395;-71
2022/01/03 07:06:54;;;;;;;4.80;2.50;;;;;;;;;;5092842;28;20910;-72
2022/01/03 07:09:20;;;;;;;5.13;2.70;;;;;;;;;;5094188;28;20388;-72
2022/01/03 07:11:46;;;;;;;7.00;2.33;;;;;;;;;;5094040;28;20454;-71
2022/01/03 07:19:36;;;;;;;5.37;2.70;;;;;;;;;;5094082;28;20434;-70
2022/01/03 07:22:04;;;;;;;5.07;2.70;;;;;;;;;;5093835;28;20427;-72
2022/01/03 07:24:34;;;;;;;6.43;1.70;;;;;;;;;;5093845;28;20415;-70
2022/01/03 07:27:04;;;;;;;2.97;1.80;;;;;;;;;;5093809;28;20437;-70
2022/01/03 07:29:32;;;;;;;2.23;1.67;;;;;;;;;;5093837;28;20396;-71
2022/01/03 07:31:58;;;;;;;3.50;1.80;;;;;;;;;;5093686;28;20980;-73
2022/01/03 07:34:24;;;;;;;3.63;1.70;;;;;;;;;;5093759;28;20970;-71
2022/01/03 07:36:50;;;;;;;5.97;1.67;;;;;;;;;;5093544;28;20411;-70
2022/01/03 07:39:16;;;;;;;10.07;2.00;;;;;;;;;;5093497;28;20463;-71
2022/01/03 07:41:42;;;;;;;4.10;2.10;;;;;;;;;;5093638;28;20391;-71
2022/01/03 07:44:08;;;;;;;3.37;1.80;;;;;;;;;;5093419;28;20399;-71
2022/01/03 07:46:34;;;;;;;5.37;2.07;;;;;;;;;;5092188;28;20416;-72
2022/01/03 07:49:00;;;;;;;14.73;3.20;;;;;;;;;;5092334;28;20426;-70
2022/01/03 07:51:26;;;;;;;4.53;2.00;;;;;;;;;;5093512;28;20762;-71
2022/01/03 07:53:52;;;;;;;1.80;1.43;;;;;;;;;;5093501;28;20906;-71
2022/01/03 07:56:18;;;;;;;2.50;1.37;;;;;;;;;;5093565;28;20446;-71
2022/01/03 07:58:45;;;;;;;3.70;1.87;;;;;;;;;;5093110;28;20479;-71
2022/01/03 08:01:11;;;;;;;6.93;2.20;;;;;;;;;;5093328;28;20435;-71
2022/01/03 08:03:37;;;;;;;3.47;2.13;;;;;;;;;;5093350;28;20886;-72
2022/01/03 08:06:04;;;;;;;8.40;2.47;;;;;;;;;;5093406;28;20429;-73
2022/01/03 08:08:30;;;;;;;4.63;1.80;;;;;;;;;;5093314;28;20486;-74
2022/01/03 08:10:56;;;;;;;4.47;2.00;;;;;;;;;;5092751;28;20933;-75
2022/01/03 08:13:22;;;;;;;3.30;1.80;;;;;;;;;;5093220;28;20833;-73
2022/01/03 08:15:48;;;;;;;8.60;2.60;;;;;;;;;;5093279;28;20745;-73
2022/01/03 08:18:14;;;;;;;7.30;2.27;;;;;;;;;;5093263;28;20471;-72
2022/01/03 08:20:40;;;;;;;10.00;2.67;;;;;;;;;;5093147;28;20407;-71
2022/01/03 08:23:07;;;;;;;2.50;1.93;;;;;;;;;;5093098;28;20495;-77
2022/01/03 08:25:37;;;;;;;5.93;2.20;;;;;;;;;;5093169;28;20407;-77
2022/01/03 08:28:06;;;;;;;4.47;2.90;;;;;;;;;;5093157;28;20452;-71
2022/01/03 08:30:32;;;;;;;8.97;2.47;;;;;;;;;;5093055;28;20477;-71
2022/01/03 08:32:58;;;;;;;4.53;1.70;;;;;;;;;;5092862;28;20459;-71
2022/01/03 08:35:25;;;;;;;2.60;1.90;;;;;;;;;;5093106;28;20431;-71
2022/01/03 08:37:51;;;;;;;7.93;2.40;;;;;;;;;;5092780;28;20591;-72
2022/01/03 08:40:17;;;;;;;4.73;2.23;;;;;;;;;;5092902;28;20453;-72
2022/01/03 08:42:44;;;;;;;6.30;2.87;;;;;;;;;;5091483;28;20830;-72
2022/01/03 08:45:10;;;;;;;3.17;1.80;;;;;;;;;;5091550;28;20412;-72
2022/01/03 08:47:36;;;;;;;4.07;2.17;;;;;;;;;;5091452;28;20412;-72
2022/01/03 08:50:03;;;;;;;6.63;2.13;;;;;;;;;;5092780;28;20407;-72
2022/01/03 08:52:30;;;;;;;6.33;2.50;;;;;;;;;;5091440;28;20423;-72
2022/01/03 08:54:56;;;;;;;4.20;1.83;;;;;;;;;;5091346;28;20408;-74
2022/01/03 08:57:22;;;;;;;4.00;1.70;;;;;;;;;;5092726;28;20883;-75
2022/01/03 08:59:48;;;;;;;2.47;1.40;;;;;;;;;;5092502;28;21075;-72
2022/01/03 09:02:16;;;;;;;4.63;1.80;;;;;;;;;;5091321;28;20443;-75
2022/01/03 09:04:42;;;;;;;2.63;1.20;;;;;;;;;;5091478;28;20420;-75
2022/01/03 09:07:08;;;;;;;2.83;1.53;;;;;;;;;;5092587;28;20404;-72
2022/01/03 09:09:34;;;;;;;4.23;2.03;;;;;;;;;;5092724;28;20762;-73
2022/01/03 09:12:01;;;;;;;5.10;2.33;;;;;;;;;;5092680;28;20400;-74
2022/01/03 09:14:27;;;;;;;7.10;2.07;;;;;;;;;;5092561;28;20415;-72
2022/01/03 09:16:53;;;;;;;1.60;1.50;;;;;;;;;;5092570;28;20411;-71
2022/01/03 09:19:19;;;;;;;3.80;2.00;;;;;;;;;;5092546;28;20886;-72
2022/01/03 09:21:45;;;;;;;5.67;1.63;;;;;;;;;;5091494;28;20416;-73
2022/01/03 09:29:31;;;;;;;5.43;1.53;;;;;;;;;;5096208;28;20394;-75
2022/01/03 09:31:57;;;;;;;4.60;2.20;;;;;;;;;;5095902;28;20927;-72
2022/01/03 09:34:23;;;;;;;3.20;2.50;;;;;;;;;;5096471;28;20403;-72
2022/01/03 09:36:49;;;;;;;3.60;1.80;;;;;;;;;;5095969;28;20553;-74
2022/01/03 09:39:15;;;;;;;7.30;2.20;;;;;;;;;;5095840;28;20582;-73
2022/01/03 09:41:44;;;;;;;6.37;2.50;;;;;;;;;;5095785;28;20503;-74
2022/01/03 09:44:11;;;;;;;3.10;2.27;;;;;;;;;;5095774;28;20474;-73
2022/01/03 09:46:42;;;;;;;3.33;1.80;;;;;;;;;;5095592;28;20400;-74
2022/01/03 09:49:09;;;;;;;7.43;1.70;;;;;;;;;;5095934;28;20408;-72
2022/01/03 09:51:36;;;;;;;6.60;2.10;;;;;;;;;;5095854;28;20404;-72
2022/01/03 09:54:03;;;;;;;6.20;1.93;;;;;;;;;;5095769;28;20419;-76
2022/01/03 09:56:31;;;;;;;4.17;1.93;;;;;;;;;;5095627;28;20902;-77
2022/01/03 09:58:57;;;;;;;3.50;1.90;;;;;;;;;;5095209;28;20510;-76
2022/01/03 10:01:24;;;;;;;4.23;1.40;;;;;;;;;;5095538;28;20440;-76
2022/01/03 10:03:50;;;;;;;4.73;1.50;;;;;;;;;;5095371;28;20395;-74
2022/01/03 10:06:17;;;;;;;4.57;1.60;;;;;;;;;;5095442;28;20395;-77
2022/01/03 10:08:43;;;;;;;1.50;1.40;;;;;;;;;;5093971;28;20412;-77
2022/01/03 10:11:09;;;;;;;1.83;1.57;;;;;;;;;;5094013;28;20526;-76
2022/01/03 10:13:35;;;;;;;4.37;1.70;;;;;;;;;;5094030;28;20415;-77
2022/01/03 10:16:01;;;;;;;2.90;1.60;;;;;;;;;;5094048;28;20411;-76
2022/01/03 10:18:27;;;;;;;8.30;1.80;;;;;;;;;;5095033;28;20466;-76
2022/01/03 10:20:53;;;;;;;4.13;1.73;;;;;;;;;;5095211;28;20399;-73
2022/01/03 10:23:19;;;;;;;3.43;1.43;;;;;;;;;;5095189;28;20407;-76
2022/01/03 10:25:50;;;;;;;6.20;1.57;;;;;;;;;;5095074;28;20400;-74
2022/01/03 10:28:26;;;;;;;6.10;1.80;;;;;;;;;;5095156;28;20412;-75
2022/01/03 10:30:53;;;;;;;6.53;2.30;;;;;;;;;;5094050;28;20450;-76
2022/01/03 10:33:20;;;;;;;4.50;1.90;;;;;;;;;;5094470;28;20427;-77
2022/01/03 10:35:47;;;;;;;9.47;1.60;;;;;;;;;;5094819;28;20411;-77
2022/01/03 10:38:32;;;;;;;4.37;1.63;;;;;;;;;;5094799;28;20451;-77
2022/01/03 10:41:15;;;;;;;3.43;1.97;;;;;;;;;;5093587;28;20419;-76
2022/01/03 10:43:43;;;;;;;3.53;1.90;;;;;;;;;;5094677;28;20410;-76
2022/01/03 10:46:27;;;;;;;8.30;2.30;;;;;;;;;;5094791;28;20936;-77
2022/01/03 10:48:57;;;;;;;3.90;2.00;;;;;;;;;;5094669;28;20400;-77
2022/01/03 10:51:25;;;;;;;7.53;1.97;;;;;;;;;;5094671;28;20914;-77
2022/01/03 10:53:53;;;;;;;8.77;1.80;;;;;;;;;;5093206;28;20829;-76
2022/01/03 10:56:40;;;;;;;2.70;1.50;;;;;;;;;;5094585;28;20400;-77
2022/01/03 10:59:15;;;;;;;4.17;2.20;;;;;;;;;;5094121;28;20816;-77
2022/01/03 11:01:41;;;;;;;4.93;1.90;;;;;;;;;;5094271;28;20898;-72
2022/01/03 11:04:09;;;;;;;7.13;2.03;;;;;;;;;;5094480;28;20457;-72
2022/01/03 11:07:01;;;;;;;1.80;1.30;;;;;;;;;;5093029;28;20914;-71
2022/01/03 11:12:16;;;;;;;5.50;1.97;;;;;;;;;;5094230;28;20449;-72
2022/01/03 11:14:42;;;;;;;3.33;1.53;;;;;;;;;;5094157;28;20453;-72
2022/01/03 11:17:22;;;;;;;3.57;1.40;;;;;;;;;;5094164;28;20407;-72
2022/01/03 11:19:48;;;;;;;6.20;2.03;;;;;;;;;;5094092;28;20423;-72
2022/01/03 11:22:34;;;;;;;4.73;1.50;;;;;;;;;;5092700;28;20404;-72
2022/01/03 11:25:00;;;;;;;4.57;1.57;;;;;;;;;;5093854;28;20905;-72
2022/01/03 11:27:26;;;;;;;9.40;2.33;;;;;;;;;;5093754;28;20814;-72
2022/01/03 11:29:52;;;;;;;3.63;2.13;;;;;;;;;;5093767;28;20904;-72
2022/01/03 11:32:18;;;;;;;6.20;1.60;;;;;;;;;;5093534;28;20415;-72
2022/01/03 11:34:45;;;;;;;3.83;1.60;;;;;;;;;;5093816;28;20483;-72
2022/01/03 11:37:11;;;;;;;4.40;2.03;;;;;;;;;;5093729;28;20404;-73
2022/01/03 11:39:37;;;;;;;3.20;1.40;;;;;;;;;;5092417;28;20550;-72
2022/01/03 11:42:03;;;;;;;4.17;1.67;;;;;;;;;;5092380;28;20412;-71
2022/01/03 11:44:30;;;;;;;6.13;1.60;;;;;;;;;;5093114;28;20465;-71
2022/01/03 11:46:56;;;;;;;4.33;1.73;;;;;;;;;;5093472;28;20404;-71
2022/01/03 11:49:22;;;;;;;2.77;1.60;;;;;;;;;;5093670;28;20404;-71
2022/01/03 11:51:48;;;;;;;3.10;1.30;;;;;;;;;;5093375;28;20882;-72
2022/01/03 11:54:16;;;;;;;5.33;1.80;;;;;;;;;;5092257;28;20461;-72
2022/01/03 11:56:47;;;;;;;4.80;1.70;;;;;;;;;;5093405;28;20895;-72
2022/01/03 12:04:30;;;;;;;5.43;1.90;;;;;;;;;;5093490;28;20403;-72
2022/01/03 12:07:09;;;;;;;4.17;2.13;;;;;;;;;;5091955;28;20480;-72
2022/01/03 12:09:37;;;;;;;2.30;1.40;;;;;;;;;;5093326;28;20435;-72
2022/01/03 12:12:04;;;;;;;1.90;1.20;;;;;;;;;;5093222;28;20484;-72
2022/01/03 12:14:39;;;;;;;2.63;1.40;;;;;;;;;;5093206;28;20396;-73
2022/01/03 12:17:07;;;;;;;4.67;1.27;;;;;;;;;;5093280;28;20410;-72
2022/01/03 12:19:33;;;;;;;4.90;1.93;;;;;;;;;;5091944;28;20479;-72
2022/01/03 12:22:00;;;;;;;4.73;1.47;;;;;;;;;;5093210;28;20929;-74
2022/01/03 12:24:26;;;;;;;3.00;1.40;;;;;;;;;;5093198;28;20457;-75
2022/01/03 12:27:14;;;;;;;3.27;1.27;;;;;;;;;;5093018;28;20404;-73
2022/01/03 12:29:58;;;;;;;4.50;1.47;;;;;;;;;;5093157;28;20487;-72
2022/01/03 12:32:34;;;;;;;2.83;1.47;;;;;;;;;;5093044;28;20450;-74
2022/01/03 12:35:13;;;;;;;2.20;1.40;;;;;;;;;;5093196;28;20422;-72
2022/01/03 12:37:43;;;;;;;3.23;1.40;;;;;;;;;;5092919;28;20458;-73
2022/01/03 12:40:09;;;;;;;5.03;1.50;;;;;;;;;;5093171;28;20404;-72
2022/01/03 12:42:53;;;;;;;2.70;0.97;;;;;;;;;;5092838;28;20751;-72
2022/01/03 12:45:35;;;;;;;1.70;1.07;;;;;;;;;;5093012;28;20407;-73
2022/01/03 12:50:42;;;;;;;2.80;1.20;;;;;;;;;;5092907;28;20407;-72
2022/01/03 12:53:09;;;;;;;4.53;1.67;;;;;;;;;;5091523;28;20517;-74
2022/01/03 12:55:38;;;;;;;6.87;1.57;;;;;;;;;;5092928;28;20902;-72
2022/01/03 12:58:04;;;;;;;7.00;1.50;;;;;;;;;;5096535;28;20467;-73
2022/01/03 13:00:38;;;;;;;3.93;1.53;;;;;;;;;;5095506;28;20502;-74
2022/01/03 13:03:19;;;;;;;7.40;1.70;;;;;;;;;;5095335;28;20474;-73
2022/01/03 13:06:06;;;;;;;2.23;1.07;;;;;;;;;;5096626;28;20407;-75
2022/01/03 13:08:35;;;;;;;5.67;1.90;;;;;;;;;;5078189;28;20399;-73
2022/01/03 13:11:06;;;;;;;2.03;1.50;;;;;;;;;;5096450;28;20960;-74
2022/01/03 13:13:33;;;;;;;2.20;1.40;;;;;;;;;;5096430;28;20475;-72
2022/01/03 13:15:59;;;;;;;4.47;1.43;;;;;;;;;;5095259;28;20416;-71
2022/01/03 13:18:25;;;;;;;2.50;1.20;;;;;;;;;;5096395;28;20477;-71
2022/01/03 13:20:58;;;;;;;7.17;1.60;;;;;;;;;;5096402;28;20859;-73
2022/01/03 13:23:24;;;;;;;3.67;1.20;;;;;;;;;;5096346;28;20408;-73
2022/01/03 13:25:51;;;;;;;5.70;1.67;;;;;;;;;;5096264;28;20899;-72
2022/01/03 13:28:17;;;;;;;5.03;1.70;;;;;;;;;;5096169;28;20428;-72
2022/01/03 13:31:02;;;;;;;3.67;1.17;;;;;;;;;;5096279;28;20404;-71
2022/01/03 13:33:28;;;;;;;4.63;1.40;;;;;;;;;;5095924;28;20408;-72
2022/01/03 13:36:05;;;;;;;2.63;1.60;;;;;;;;;;5096089;28;20392;-74
2022/01/03 13:38:31;;;;;;;10.07;2.17;;;;;;;;;;5096024;28;20466;-71
2022/01/03 13:41:13;;;;;;;3.43;1.77;;;;;;;;;;5094758;28;20412;-73
2022/01/03 13:43:48;;;;;;;3.50;1.70;;;;;;;;;;5095788;28;20403;-75
2022/01/03 13:49:13;;;;;;;3.23;1.57;;;;;;;;;;5096165;28;20422;-72
2022/01/03 13:51:45;;;;;;;4.77;1.50;;;;;;;;;;5095723;28;20879;-75
2022/01/03 13:54:21;;;;;;;4.77;1.50;;;;;;;;;;5095707;28;20407;-73
2022/01/03 13:56:47;;;;;;;5.70;1.80;;;;;;;;;;5094574;28;20412;-72
2022/01/03 13:59:14;;;;;;;4.00;1.83;;;;;;;;;;5094269;28;20486;-72
2022/01/03 14:01:40;;;;;;;3.23;1.60;;;;;;;;;;5095464;28;20423;-74
2022/01/03 14:04:06;;;;;;;3.50;2.00;;;;;;;;;;5094250;28;20482;-75
2022/01/03 14:06:32;;;;;;;8.13;1.80;;;;;;;;;;5095356;28;20469;-74
2022/01/03 14:08:58;;;;;;;5.30;1.80;;;;;;;;;;5093396;28;20901;-72
2022/01/03 14:11:26;;;;;;;3.97;1.57;;;;;;;;;;5095221;28;20956;-72
2022/01/03 14:13:53;;;;;;;3.13;1.70;;;;;;;;;;5094137;28;20428;-72
2022/01/03 14:16:19;;;;;;;3.80;1.70;;;;;;;;;;5095189;28;20392;-72
2022/01/03 14:18:47;;;;;;;4.60;1.80;;;;;;;;;;5095132;28;20521;-73
2022/01/03 14:21:15;;;;;;;7.23;2.10;;;;;;;;;;5095243;28;20503;-72
2022/01/03 14:23:45;;;;;;;5.70;1.77;;;;;;;;;;5095129;28;20890;-73
2022/01/03 14:26:12;;;;;;;5.20;2.17;;;;;;;;;;5095215;28;20404;-72
2022/01/03 14:28:39;;;;;;;2.40;1.50;;;;;;;;;;5094966;28;20442;-75
2022/01/03 14:31:06;;;;;;;6.73;1.70;;;;;;;;;;5093555;28;20419;-72
2022/01/03 14:33:34;;;;;;;5.03;1.60;;;;;;;;;;5093608;28;20412;-72
2022/01/03 14:36:09;;;;;;;2.50;1.40;;;;;;;;;;5094939;28;20408;-72
2022/01/03 14:38:38;;;;;;;3.03;1.30;;;;;;;;;;5094696;28;20463;-71
2022/01/03 14:41:04;;;;;;;4.43;1.40;;;;;;;;;;5094858;28;20400;-73
2022/01/03 14:43:30;;;;;;;3.57;1.30;;;;;;;;;;5093428;28;20895;-74
2022/01/03 14:46:06;;;;;;;2.40;1.40;;;;;;;;;;5094609;28;20407;-73
2022/01/03 14:48:33;;;;;;;5.67;1.67;;;;;;;;;;5093304;28;20426;-73
2022/01/03 14:51:12;;;;;;;3.33;1.67;;;;;;;;;;5094613;28;20411;-72
2022/01/03 14:53:39;;;;;;;2.43;1.67;;;;;;;;;;5094660;28;20408;-75
2022/01/03 14:56:05;;;;;;;5.13;1.50;;;;;;;;;;5094563;28;20751;-76
2022/01/03 14:58:31;;;;;;;3.53;1.63;;;;;;;;;;5094312;28;20490;-75
2022/01/03 15:00:57;;;;;;;5.90;1.50;;;;;;;;;;5093140;28;20469;-76
2022/01/03 15:03:24;;;;;;;5.10;1.50;;;;;;;;;;5094295;28;20435;-75
2022/01/03 15:05:50;;;;;;;2.80;1.50;;;;;;;;;;5094394;28;20399;-75
2022/01/03 15:08:16;;;;;;;3.97;1.87;;;;;;;;;;5094173;28;20483;-75
2022/01/03 15:10:43;;;;;;;4.47;1.50;;;;;;;;;;5094275;28;20400;-75
2022/01/03 15:13:10;;;;;;;2.80;2.17;;;;;;;;;;5092811;28;20507;-76
2022/01/03 15:15:37;;;;;;;2.20;1.37;;;;;;;;;;5092858;28;20907;-75
2022/01/03 15:18:03;;;;;;;8.40;1.63;;;;;;;;;;5094120;28;20456;-77